Time;durP1;ratioP1;P1;durP2;ratioP2;P2;SDS_P1;SDS_P2;PMS_P1;PMS_P2;Temp;Humidity;BMP_temperature;BMP_pressure;BME280_temperature;BME280_humidity;BME280_pressure;Samples;Min_cycle;Max_cycle;Signal;HPM_P1;HPM_P2
2023/03/01 00:01:36;;;;;;;34.70;31.40;;;;;;;0.03;81.58;95917.28;5043643;28;20454;-61
2023/03/01 00:04:02;;;;;;;34.72;31.40;;;;;;;-0.01;81.85;95920.03;5050407;28;20059;-61
2023/03/01 00:06:28;;;;;;;34.25;31.02;;;;;;;0.00;81.64;95913.13;5044797;28;20025;-61
2023/03/01 00:08:53;;;;;;;35.13;31.88;;;;;;;0.01;82.01;95919.97;5054501;28;20029;-61
2023/03/01 00:11:22;;;;;;;34.72;31.40;;;;;;;0.05;81.74;95921.50;5054436;28;20036;-61
2023/03/01 00:13:51;;;;;;;37.13;33.65;;;;;;;-0.02;82.13;95920.94;5059336;28;20566;-62
2023/03/01 00:16:40;;;;;;;34.17;30.98;;;;;;;0.05;81.87;95910.28;5047035;28;20116;-62
2023/03/01 00:19:07;;;;;;;34.50;31.33;;;;;;;-0.04;82.32;95909.81;5046199;28;20052;-58
2023/03/01 00:21:35;;;;;;;35.83;32.42;;;;;;;-0.10;83.21;95911.84;5047157;28;20094;-61
2023/03/01 00:24:01;;;;;;;35.53;32.30;;;;;;;-0.15;83.47;95909.47;5049019;28;20024;-61
2023/03/01 00:26:27;;;;;;;34.58;31.45;;;;;;;-0.07;83.55;95914.28;5045810;28;20025;-61
2023/03/01 00:28:52;;;;;;;33.38;30.23;;;;;;;0.04;82.65;95918.97;5046863;28;20114;-61
2023/03/01 00:31:22;;;;;;;34.70;31.48;;;;;;;0.03;82.16;95915.56;5028962;28;20047;-61
2023/03/01 00:33:48;;;;;;;33.25;30.02;;;;;;;0.12;81.99;95917.72;5051440;28;20024;-61
2023/03/01 00:36:15;;;;;;;34.35;31.25;;;;;;;0.05;82.36;95915.47;5050825;28;20103;-64
2023/03/01 00:38:44;;;;;;;36.28;32.78;;;;;;;-0.10;82.88;95912.72;5047578;28;20418;-58
2023/03/01 00:41:12;;;;;;;37.40;33.90;;;;;;;0.03;82.28;95920.75;5039911;28;20113;-65
2023/03/01 00:43:38;;;;;;;37.78;34.42;;;;;;;-0.07;82.74;95909.13;5043610;28;20087;-64
2023/03/01 00:46:12;;;;;;;38.70;34.83;;;;;;;0.05;82.54;95910.28;5050449;28;20037;-64
2023/03/01 00:48:38;;;;;;;38.35;34.65;;;;;;;0.01;82.64;95903.59;5046968;28;20044;-64
2023/03/01 00:51:12;;;;;;;37.15;33.70;;;;;;;-0.13;82.76;95906.81;5053656;28;20028;-63
2023/03/01 00:53:38;;;;;;;37.15;33.55;;;;;;;-0.23;83.58;95906.41;5050835;28;20033;-64
2023/03/01 00:56:05;;;;;;;36.35;32.95;;;;;;;-0.28;84.08;95900.63;5057034;28;20488;-62
2023/03/01 00:58:31;;;;;;;37.63;33.95;;;;;;;-0.12;83.44;95903.31;5054889;28;20128;-61
2023/03/01 01:00:57;;;;;;;37.95;34.05;;;;;;;-0.20;83.57;95901.09;5060199;28;20025;-58
2023/03/01 01:03:24;;;;;;;37.97;34.05;;;;;;;-0.28;83.62;95898.84;5059088;28;20798;-59
2023/03/01 01:05:50;;;;;;;36.72;33.22;;;;;;;-0.17;83.86;95903.53;5057007;28;20093;-58
2023/03/01 01:08:16;;;;;;;36.35;33.15;;;;;;;-0.23;84.29;95906.41;5063518;28;20060;-58
2023/03/01 01:10:44;;;;;;;37.00;33.50;;;;;;;-0.21;84.25;95889.06;5063019;28;20047;-58
2023/03/01 01:13:09;;;;;;;36.53;33.33;;;;;;;-0.21;83.99;95889.06;5057845;28;20024;-58
2023/03/01 01:15:34;;;;;;;35.97;32.65;;;;;;;-0.14;83.53;95885.25;5060386;28;20502;-58
2023/03/01 01:18:00;;;;;;;36.63;33.08;;;;;;;-0.16;83.52;95892.25;5045504;28;20025;-62
2023/03/01 01:20:26;;;;;;;36.95;33.60;;;;;;;-0.08;83.79;95884.16;5064390;28;20040;-64
2023/03/01 01:22:51;;;;;;;37.10;33.35;;;;;;;-0.24;84.28;95884.84;5064164;28;20100;-63
2023/03/01 01:25:17;;;;;;;38.15;34.67;;;;;;;-0.18;83.21;95875.97;5059395;28;20029;-63
2023/03/01 01:27:42;;;;;;;39.08;35.35;;;;;;;-0.12;83.47;95870.50;5065909;28;20027;-64
2023/03/01 01:30:08;;;;;;;37.72;34.33;;;;;;;-0.17;84.12;95880.25;5061595;28;20025;-64
2023/03/01 01:32:34;;;;;;;37.25;33.47;;;;;;;-0.15;84.07;95870.66;5062555;28;20032;-64
2023/03/01 01:34:59;;;;;;;36.42;32.95;;;;;;;-0.16;84.47;95871.56;5059020;28;20033;-61
2023/03/01 01:37:30;;;;;;;36.25;32.85;;;;;;;-0.17;84.79;95864.72;5061377;28;20131;-70
2023/03/01 01:39:59;;;;;;;36.88;33.38;;;;;;;-0.27;85.22;95866.88;5058395;28;20515;-56
2023/03/01 01:42:25;;;;;;;37.47;34.00;;;;;;;-0.17;85.16;95862.13;5061418;28;20013;-55
2023/03/01 01:45:25;;;;;;;36.45;33.05;;;;;;;-0.09;84.08;95857.44;5061219;28;20581;-55
2023/03/01 01:47:52;;;;;;;38.30;34.63;;;;;;;-0.17;84.03;95856.94;5061461;28;20096;-56
2023/03/01 01:50:18;;;;;;;39.22;35.33;;;;;;;-0.10;83.50;95849.72;5062880;28;20597;-56
2023/03/01 01:52:46;;;;;;;36.35;32.85;;;;;;;-0.14;83.92;95854.22;5062949;28;20115;-55
2023/03/01 01:55:17;;;;;;;39.10;35.22;;;;;;;-0.05;83.43;95851.19;5060940;28;20023;-58
2023/03/01 01:57:48;;;;;;;36.75;33.25;;;;;;;-0.07;83.58;95845.25;5057263;28;20714;-61
2023/03/01 02:00:21;;;;;;;37.13;33.53;;;;;;;-0.16;84.11;95841.34;5058385;28;20097;-61
2023/03/01 02:02:51;;;;;;;36.88;33.50;;;;;;;-0.22;84.46;95846.84;5054967;28;20393;-61
2023/03/01 02:05:32;;;;;;;38.45;34.75;;;;;;;-0.26;85.13;95844.44;5050116;28;20025;-61
2023/03/01 02:07:59;;;;;;;38.10;34.22;;;;;;;-0.34;85.23;95837.88;5060652;28;20028;-61
2023/03/01 02:10:25;;;;;;;38.78;35.25;;;;;;;-0.17;85.59;95834.50;5064597;28;20043;-61
2023/03/01 02:12:52;;;;;;;39.20;35.60;;;;;;;-0.30;85.21;95836.84;5056131;28;20028;-70
2023/03/01 02:15:17;;;;;;;40.05;36.20;;;;;;;-0.36;85.42;95834.50;5052179;28;20760;-61
2023/03/01 02:17:43;;;;;;;40.70;36.90;;;;;;;-0.33;85.29;95834.41;5051224;28;20068;-59
2023/03/01 02:20:33;;;;;;;39.45;35.63;;;;;;;-0.41;85.32;95825.31;5051597;28;20029;-59
2023/03/01 02:23:00;;;;;;;40.65;36.42;;;;;;;-0.47;85.28;95826.44;5048131;28;20028;-58
2023/03/01 02:25:46;;;;;;;39.65;36.10;;;;;;;-0.45;85.34;95827.19;5050494;28;20031;-59
2023/03/01 02:28:17;;;;;;;40.33;36.40;;;;;;;-0.48;85.24;95822.16;5041431;28;20021;-59
2023/03/01 02:33:33;;;;;;;40.45;36.42;;;;;;;-0.48;85.43;95814.41;5051872;28;20035;-59
2023/03/01 02:36:04;;;;;;;41.95;37.90;;;;;;;-0.48;85.69;95814.41;5039738;28;20563;-57
2023/03/01 02:38:30;;;;;;;41.10;37.25;;;;;;;-0.43;85.91;95807.25;5052275;28;20575;-58
2023/03/01 02:40:57;;;;;;;39.28;35.35;;;;;;;-0.40;86.01;95803.69;5051234;28;20021;-59
2023/03/01 02:43:27;;;;;;;40.55;36.80;;;;;;;-0.33;85.52;95808.53;5044037;28;20013;-58
2023/03/01 02:45:53;;;;;;;41.03;37.20;;;;;;;-0.36;85.43;95794.88;5033792;28;20021;-58
2023/03/01 02:48:19;;;;;;;38.70;35.17;;;;;;;-0.35;84.43;95797.38;5050386;28;20017;-58
2023/03/01 02:51:07;;;;;;;39.50;35.80;;;;;;;-0.33;84.45;95798.16;5051420;28;20052;-58
2023/03/01 02:53:51;;;;;;;40.42;36.65;;;;;;;-0.36;84.80;95787.94;5040554;28;20071;-70
2023/03/01 02:56:17;;;;;;;42.63;38.50;;;;;;;-0.41;85.17;95783.91;5050530;28;20060;-61
2023/03/01 02:58:51;;;;;;;41.70;37.70;;;;;;;-0.39;84.53;95779.50;5062539;28;20083;-61
2023/03/01 03:01:18;;;;;;;42.13;37.92;;;;;;;-0.35;84.64;95779.28;5059876;28;20028;-61
2023/03/01 03:03:44;;;;;;;39.17;35.38;;;;;;;-0.41;85.07;95776.97;5053135;28;20024;-61
2023/03/01 03:06:09;;;;;;;41.35;37.55;;;;;;;-0.47;85.13;95775.50;5058517;28;20051;-61
2023/03/01 03:08:35;;;;;;;39.28;35.47;;;;;;;-0.46;84.78;95772.00;5056092;28;20033;-62
2023/03/01 03:11:01;;;;;;;40.03;36.30;;;;;;;-0.49;84.69;95768.75;5050296;28;20070;-59
2023/03/01 03:13:28;;;;;;;40.40;36.60;;;;;;;-0.50;85.53;95767.06;5026848;28;20399;-61
2023/03/01 03:15:54;;;;;;;42.10;38.28;;;;;;;-0.46;84.28;95771.19;5039062;28;20018;-70
2023/03/01 03:18:20;;;;;;;40.75;36.97;;;;;;;-0.51;84.63;95763.63;5056413;28;20016;-69
2023/03/01 03:20:45;;;;;;;61.17;53.05;;;;;;;-0.50;84.67;95765.31;5047708;28;20512;-70
2023/03/01 03:23:12;;;;;;;52.58;46.53;;;;;;;-0.49;84.32;95764.41;5056060;28;20055;-69
2023/03/01 03:25:37;;;;;;;69.22;59.40;;;;;;;-0.51;84.48;95766.22;5045175;28;20029;-69
2023/03/01 03:28:09;;;;;;;64.78;57.70;;;;;;;-0.51;84.56;95771.41;5050246;28;20016;-69
2023/03/01 03:30:38;;;;;;;50.13;44.85;;;;;;;-0.53;84.63;95767.22;5050527;28;20090;-57
2023/03/01 03:33:06;;;;;;;53.83;48.00;;;;;;;-0.54;84.28;95768.97;5060314;28;20107;-61
2023/03/01 03:35:39;;;;;;;51.75;46.22;;;;;;;-0.52;84.75;95769.72;5054622;28;20051;-61
2023/03/01 03:38:09;;;;;;;49.75;44.85;;;;;;;-0.58;85.21;95765.66;5041569;28;20029;-61
2023/03/01 03:41:03;;;;;;;44.53;40.13;;;;;;;-0.59;85.40;95765.75;5058756;28;20052;-61
2023/03/01 03:43:31;;;;;;;44.40;40.00;;;;;;;-0.58;85.69;95763.09;5029207;28;20037;-61
2023/03/01 03:45:56;;;;;;;51.17;46.17;;;;;;;-0.55;85.27;95764.69;5049899;28;20025;-61
2023/03/01 03:48:22;;;;;;;44.88;40.63;;;;;;;-0.56;85.04;95759.59;5054060;28;20088;-60
2023/03/01 03:50:51;;;;;;;46.80;42.42;;;;;;;-0.54;85.48;95758.63;5049480;28;20021;-62
2023/03/01 03:53:17;;;;;;;42.38;38.30;;;;;;;-0.56;85.72;95762.16;5036680;28;20017;-57
2023/03/01 03:55:44;;;;;;;44.65;40.28;;;;;;;-0.56;85.66;95767.34;5050990;28;20063;-70
2023/03/01 03:58:10;;;;;;;45.47;41.08;;;;;;;-0.52;85.67;95766.31;5049332;28;20039;-71
2023/03/01 04:00:39;;;;;;;42.72;38.63;;;;;;;-0.55;85.33;95762.13;5042721;28;20026;-70
2023/03/01 04:03:05;;;;;;;42.35;38.15;;;;;;;-0.49;85.17;95761.81;5032281;28;20139;-70
2023/03/01 04:05:30;;;;;;;43.03;38.92;;;;;;;-0.56;84.82;95754.41;5050402;28;20044;-69
2023/03/01 04:08:03;;;;;;;42.75;38.75;;;;;;;-0.56;85.15;95750.09;5049732;28;20103;-70
2023/03/01 04:10:30;;;;;;;47.55;42.60;;;;;;;-0.54;84.98;95758.63;5049995;28;20056;-61
2023/03/01 04:12:56;;;;;;;45.90;41.25;;;;;;;-0.50;84.90;95748.97;5058544;28;20036;-70
2023/03/01 04:15:23;;;;;;;45.42;41.05;;;;;;;-0.58;85.03;95744.97;5049736;28;20041;-70
2023/03/01 04:17:51;;;;;;;74.88;60.30;;;;;;;-0.60;85.54;95739.03;5047147;28;20034;-70
2023/03/01 04:20:26;;;;;;;50.28;45.00;;;;;;;-0.60;85.58;95741.63;5059366;28;20082;-70
2023/03/01 04:23:10;;;;;;;54.63;48.53;;;;;;;-0.58;85.53;95744.97;5047716;28;20036;-69
2023/03/01 04:25:46;;;;;;;63.70;55.63;;;;;;;-0.58;85.49;95737.22;5047510;28;20115;-69
2023/03/01 04:28:11;;;;;;;53.78;48.13;;;;;;;-0.55;85.57;95740.56;5038333;28;20020;-58
2023/03/01 04:30:38;;;;;;;44.90;40.70;;;;;;;-0.48;85.43;95740.22;5062992;28;20654;-59
2023/03/01 04:33:08;;;;;;;45.20;40.80;;;;;;;-0.48;85.77;95741.97;5060209;28;20414;-59
2023/03/01 04:35:35;;;;;;;49.25;44.30;;;;;;;-0.48;85.67;95744.56;5059886;28;20388;-59
2023/03/01 04:38:01;;;;;;;44.70;40.45;;;;;;;-0.52;85.40;95737.88;5062834;28;20025;-58
2023/03/01 04:40:27;;;;;;;43.65;39.55;;;;;;;-0.49;85.62;95745.47;5052503;28;20414;-58
2023/03/01 04:42:52;;;;;;;48.42;43.83;;;;;;;-0.53;85.42;95738.78;5048886;28;20025;-58
2023/03/01 04:45:17;;;;;;;49.78;44.85;;;;;;;-0.54;85.74;95726.75;5049211;28;20036;-57
2023/03/01 04:47:44;;;;;;;48.35;43.70;;;;;;;-0.54;85.56;95726.75;5061776;28;20028;-63
2023/03/01 04:50:12;;;;;;;43.45;39.30;;;;;;;-0.50;85.13;95728.28;5044705;28;20025;-69
2023/03/01 04:52:37;;;;;;;42.85;38.85;;;;;;;-0.34;84.63;95724.03;5061176;28;20021;-62
2023/03/01 04:55:04;;;;;;;43.50;39.10;;;;;;;-0.39;85.49;95731.19;5059723;28;20406;-61
2023/03/01 04:57:29;;;;;;;42.03;38.17;;;;;;;-0.38;84.61;95732.84;5048895;28;20458;-62
2023/03/01 04:59:55;;;;;;;43.50;39.20;;;;;;;-0.42;85.55;95723.56;5048076;28;20099;-62
2023/03/01 05:02:20;;;;;;;43.50;39.20;;;;;;;-0.38;85.29;95716.50;5048950;28;20041;-61
2023/03/01 05:04:45;;;;;;;46.50;41.63;;;;;;;-0.34;85.24;95721.44;5046807;28;20045;-61
2023/03/01 05:07:12;;;;;;;41.95;38.17;;;;;;;-0.23;85.35;95722.69;5040820;28;20028;-62
2023/03/01 05:09:38;;;;;;;42.25;38.30;;;;;;;-0.32;85.19;95721.38;5042535;28;20025;-62
2023/03/01 05:12:04;;;;;;;40.92;37.13;;;;;;;-0.41;85.44;95716.66;5029676;28;20025;-58
2023/03/01 05:14:29;;;;;;;42.33;38.20;;;;;;;-0.38;84.79;95727.69;5056944;28;20033;-59
2023/03/01 05:16:54;;;;;;;43.75;39.55;;;;;;;-0.38;84.72;95722.50;5056068;28;20025;-58
2023/03/01 05:19:22;;;;;;;49.50;44.35;;;;;;;-0.45;85.25;95716.78;5065378;28;20446;-58
2023/03/01 05:22:06;;;;;;;47.35;42.58;;;;;;;-0.44;86.08;95718.47;5056260;28;20020;-58
2023/03/01 05:24:33;;;;;;;45.63;41.10;;;;;;;-0.39;85.51;95718.25;5067368;28;20025;-58
2023/03/01 05:27:00;;;;;;;41.75;37.65;;;;;;;-0.40;85.55;95713.97;5057428;28;20501;-62
2023/03/01 05:29:27;;;;;;;42.20;38.25;;;;;;;-0.37;85.17;95718.19;5046976;28;20025;-58
2023/03/01 05:31:54;;;;;;;47.22;42.72;;;;;;;-0.41;85.50;95714.88;5057769;28;20505;-59
2023/03/01 05:34:32;;;;;;;44.45;39.92;;;;;;;-0.34;85.27;95712.84;5048568;28;20033;-59
2023/03/01 05:36:58;;;;;;;44.65;40.25;;;;;;;-0.41;85.11;95721.84;5048998;28;20039;-59
2023/03/01 05:39:25;;;;;;;43.83;39.58;;;;;;;-0.32;84.01;95722.22;5034421;28;20108;-59
2023/03/01 05:41:56;;;;;;;43.92;39.80;;;;;;;-0.25;83.62;95717.56;5042598;28;20056;-59
2023/03/01 05:44:21;;;;;;;43.35;39.05;;;;;;;-0.35;84.60;95722.34;5040782;28;20113;-59
2023/03/01 05:46:47;;;;;;;42.33;38.25;;;;;;;-0.37;84.75;95718.19;5050378;28;20028;-61
2023/03/01 05:49:13;;;;;;;42.50;38.42;;;;;;;-0.34;84.59;95718.84;5059500;28;20438;-64
2023/03/01 05:51:43;;;;;;;44.20;40.00;;;;;;;-0.37;84.59;95721.59;5051009;28;20021;-57
2023/03/01 05:54:09;;;;;;;42.63;38.63;;;;;;;-0.39;84.48;95715.66;5055498;28;20060;-59
2023/03/01 05:56:36;;;;;;;42.63;38.42;;;;;;;-0.19;83.41;95712.13;5051680;28;20061;-59
2023/03/01 05:59:03;;;;;;;42.83;38.83;;;;;;;-0.05;82.28;95711.41;5052261;28;20049;-59
2023/03/01 06:01:29;;;;;;;42.05;38.08;;;;;;;-0.13;81.60;95705.78;5036829;28;20099;-58
2023/03/01 06:03:56;;;;;;;41.90;37.92;;;;;;;-0.24;82.89;95710.66;5039145;28;20464;-59
2023/03/01 06:06:22;;;;;;;43.25;39.00;;;;;;;-0.27;83.60;95714.22;5049328;28;20025;-62
2023/03/01 06:08:47;;;;;;;43.88;39.50;;;;;;;-0.34;83.39;95715.44;5041109;28;20074;-59
2023/03/01 06:11:13;;;;;;;43.70;39.50;;;;;;;-0.17;83.35;95719.78;5052932;28;20035;-62
2023/03/01 06:13:38;;;;;;;45.97;41.50;;;;;;;-0.07;82.32;95721.03;5044236;28;20029;-61
2023/03/01 06:16:07;;;;;;;44.58;40.47;;;;;;;-0.34;83.62;95715.44;5061972;28;20029;-61
2023/03/01 06:18:32;;;;;;;44.80;40.50;;;;;;;-0.40;84.29;95718.34;5071621;28;20516;-62
2023/03/01 06:20:58;;;;;;;43.92;39.67;;;;;;;-0.44;84.46;95718.47;5069475;28;20029;-62
2023/03/01 06:23:24;;;;;;;43.88;39.65;;;;;;;-0.45;84.73;95719.38;5061760;28;20873;-61
2023/03/01 06:25:49;;;;;;;43.92;39.80;;;;;;;-0.26;83.47;95709.91;5066925;28;20021;-59
2023/03/01 06:28:15;;;;;;;45.20;40.70;;;;;;;-0.37;83.87;95721.59;5062591;28;20029;-62
2023/03/01 06:30:40;;;;;;;44.47;40.40;;;;;;;-0.39;84.25;95714.84;5051659;28;20490;-62
2023/03/01 06:33:06;;;;;;;43.72;39.42;;;;;;;-0.37;84.07;95713.81;5044118;28;20080;-61
2023/03/01 06:35:31;;;;;;;43.47;39.13;;;;;;;-0.27;83.17;95715.97;5045978;28;20128;-62
2023/03/01 06:37:58;;;;;;;44.55;40.15;;;;;;;-0.40;83.74;95719.16;5040460;28;20024;-62
2023/03/01 06:40:24;;;;;;;45.70;41.42;;;;;;;-0.46;84.11;95707.34;5043483;28;20465;-61
2023/03/01 06:42:50;;;;;;;45.45;40.95;;;;;;;-0.36;84.49;95715.50;5049041;28;20017;-61
2023/03/01 06:45:17;;;;;;;46.78;41.97;;;;;;;-0.39;83.87;95707.88;5040256;28;20064;-62
2023/03/01 06:47:42;;;;;;;43.63;39.28;;;;;;;-0.37;83.59;95713.81;5044124;28;20095;-59
2023/03/01 06:50:08;;;;;;;45.58;41.10;;;;;;;-0.20;83.83;95714.75;5031344;28;20491;-58
2023/03/01 06:52:33;;;;;;;43.80;39.30;;;;;;;-0.34;83.90;95723.19;5049723;28;20108;-58
2023/03/01 06:55:00;;;;;;;45.38;40.97;;;;;;;-0.22;83.74;95716.59;5040150;28;20112;-59
2023/03/01 06:57:25;;;;;;;45.97;41.22;;;;;;;-0.10;82.44;95718.59;5042577;28;20455;-59
2023/03/01 06:59:50;;;;;;;45.17;40.72;;;;;;;-0.27;83.53;95718.56;5045085;28;20121;-59
2023/03/01 07:02:16;;;;;;;45.78;41.17;;;;;;;-0.33;83.16;95720.56;5041432;28;20043;-60
2023/03/01 07:04:42;;;;;;;44.95;40.45;;;;;;;-0.14;82.71;95719.63;5057693;28;20025;-69
2023/03/01 07:07:08;;;;;;;45.78;41.38;;;;;;;-0.10;82.72;95731.53;5062362;28;20021;-68
2023/03/01 07:09:33;;;;;;;46.88;38.80;;;;;;;0.01;81.39;95723.22;5044918;28;20036;-69
2023/03/01 07:11:59;;;;;;;45.40;41.05;;;;;;;-0.25;83.09;95722.75;5052747;28;20056;-70
2023/03/01 07:14:25;;;;;;;44.65;40.25;;;;;;;-0.32;83.55;95722.22;5055515;28;20032;-71
2023/03/01 07:16:51;;;;;;;45.85;39.92;;;;;;;-0.19;82.46;95713.84;5050860;28;20033;-69
2023/03/01 07:19:18;;;;;;;46.63;41.83;;;;;;;-0.05;82.34;95721.78;5052519;28;20039;-70
2023/03/01 07:21:43;;;;;;;46.35;41.90;;;;;;;-0.26;83.38;95715.06;5061417;28;20108;-68
2023/03/01 07:24:10;;;;;;;47.63;43.00;;;;;;;-0.38;83.47;95716.50;5054719;28;20517;-53
2023/03/01 07:26:35;;;;;;;47.15;42.45;;;;;;;-0.21;83.39;95719.13;5040371;28;20063;-61
2023/03/01 07:29:02;;;;;;;44.28;40.00;;;;;;;-0.32;82.93;95718.78;5042504;28;20634;-62
2023/03/01 07:31:28;;;;;;;45.60;41.00;;;;;;;-0.34;83.52;95721.44;5040876;28;20083;-62
2023/03/01 07:33:57;;;;;;;46.65;42.25;;;;;;;-0.15;83.06;95717.94;5043244;28;20033;-61
2023/03/01 07:36:23;;;;;;;45.63;41.00;;;;;;;-0.08;82.33;95724.53;5049335;28;20036;-62
2023/03/01 07:38:48;;;;;;;44.40;40.08;;;;;;;-0.31;83.18;95718.72;5039414;28;20577;-62
2023/03/01 07:41:14;;;;;;;46.70;42.00;;;;;;;-0.31;83.59;95710.09;5039855;28;20132;-61
2023/03/01 07:43:42;;;;;;;45.10;40.65;;;;;;;-0.16;83.14;95713.69;5050192;28;20056;-58
2023/03/01 07:46:07;;;;;;;43.95;39.65;;;;;;;-0.12;83.12;95717.78;5053895;28;20024;-62
2023/03/01 07:48:33;;;;;;;46.03;41.53;;;;;;;-0.06;82.51;95711.50;5039388;28;20024;-61
2023/03/01 07:51:04;;;;;;;46.97;42.15;;;;;;;0.01;83.17;95712.88;5035375;28;20506;-62
2023/03/01 07:53:31;;;;;;;45.85;41.22;;;;;;;0.00;82.54;95711.19;5026767;28;20053;-61
2023/03/01 07:56:11;;;;;;;44.72;40.22;;;;;;;0.11;82.30;95713.22;5043541;28;20068;-62
2023/03/01 07:58:39;;;;;;;46.47;41.97;;;;;;;0.05;82.44;95714.38;5038486;28;20029;-63
2023/03/01 08:01:08;;;;;;;46.40;41.70;;;;;;;0.02;84.16;95704.19;5047958;28;20031;-59
2023/03/01 08:03:34;;;;;;;47.63;43.15;;;;;;;0.02;84.76;95713.69;5037426;28;20043;-63
2023/03/01 08:06:01;;;;;;;48.70;43.63;;;;;;;-0.08;85.70;95705.56;5042931;28;20078;-58
2023/03/01 08:08:26;;;;;;;48.55;43.85;;;;;;;-0.09;85.46;95711.66;5039444;28;20387;-59
2023/03/01 08:10:52;;;;;;;47.33;42.72;;;;;;;-0.09;85.79;95707.31;5040695;28;20116;-60
2023/03/01 08:13:22;;;;;;;46.45;42.00;;;;;;;0.03;85.95;95705.00;5056342;28;20111;-59
2023/03/01 08:15:50;;;;;;;47.75;43.20;;;;;;;0.19;86.11;95705.91;5043045;28;20020;-59
2023/03/01 08:18:17;;;;;;;44.30;40.08;;;;;;;0.43;83.10;95708.16;5053415;28;20512;-59
2023/03/01 08:20:43;;;;;;;44.20;39.83;;;;;;;0.48;82.39;95705.34;5053839;28;20478;-56
2023/03/01 08:23:08;;;;;;;44.95;40.58;;;;;;;0.49;81.87;95713.03;5043115;28;20067;-64
2023/03/01 08:25:33;;;;;;;45.63;41.25;;;;;;;0.53;80.93;95699.00;5036990;28;20043;-54
2023/03/01 08:27:59;;;;;;;44.25;39.95;;;;;;;0.52;80.31;95699.91;5044554;28;20021;-56
2023/03/01 08:30:24;;;;;;;44.42;40.08;;;;;;;0.61;80.77;95697.78;5043041;28;20017;-53
2023/03/01 08:32:50;;;;;;;43.38;39.08;;;;;;;0.66;80.39;95700.94;5037697;28;20082;-53
2023/03/01 08:35:16;;;;;;;43.90;39.63;;;;;;;0.64;79.55;95695.00;5042454;28;20032;-54
2023/03/01 08:37:42;;;;;;;43.63;39.25;;;;;;;0.72;79.39;95690.25;5038535;28;20034;-56
2023/03/01 08:40:09;;;;;;;44.50;40.00;;;;;;;0.77;79.03;95684.81;5035282;28;20817;-62
2023/03/01 08:42:36;;;;;;;43.13;38.70;;;;;;;0.82;78.31;95691.44;5037211;28;20036;-60
2023/03/01 08:45:02;;;;;;;45.72;41.22;;;;;;;0.80;78.69;95688.09;5042882;28;20016;-62
2023/03/01 08:47:27;;;;;;;56.78;50.17;;;;;;;0.74;78.57;95692.78;5048018;28;20112;-64
2023/03/01 08:49:53;;;;;;;46.72;41.97;;;;;;;0.73;78.71;95688.50;5030834;28;20457;-64
2023/03/01 08:52:20;;;;;;;44.75;40.30;;;;;;;0.74;77.75;95690.19;5043410;28;20446;-65
2023/03/01 08:54:47;;;;;;;49.58;44.38;;;;;;;0.64;77.51;95685.47;5033221;28;20534;-64
2023/03/01 08:57:12;;;;;;;51.22;45.70;;;;;;;0.64;77.31;95689.81;5047677;28;20503;-62
2023/03/01 08:59:38;;;;;;;44.78;40.15;;;;;;;0.60;78.12;95690.91;5040205;28;20035;-55
2023/03/01 09:02:05;;;;;;;42.70;38.40;;;;;;;0.57;77.92;95692.75;5043791;28;20025;-63
2023/03/01 09:04:30;;;;;;;41.92;38.08;;;;;;;0.59;77.78;95694.44;5049320;28;20108;-61
2023/03/01 09:06:55;;;;;;;44.97;40.28;;;;;;;0.52;78.33;95692.13;5039465;28;20033;-61
2023/03/01 09:09:21;;;;;;;44.63;40.25;;;;;;;0.73;76.85;95694.50;5040733;28;20032;-61
2023/03/01 09:11:46;;;;;;;43.80;39.60;;;;;;;0.71;77.09;95688.56;5049632;28;20025;-60
2023/03/01 09:14:13;;;;;;;49.47;43.70;;;;;;;0.79;77.27;95683.00;5041283;28;20112;-60
2023/03/01 09:16:39;;;;;;;49.13;43.83;;;;;;;0.89;76.93;95684.19;5052247;28;20036;-61
2023/03/01 09:19:05;;;;;;;53.28;47.60;;;;;;;0.89;77.28;95696.28;5032533;28;20555;-60
2023/03/01 09:21:30;;;;;;;53.15;47.45;;;;;;;0.86;76.36;95692.09;5052745;28;20021;-69
2023/03/01 09:23:57;;;;;;;46.63;41.70;;;;;;;0.96;77.42;95690.69;5049923;28;20041;-62
2023/03/01 09:26:23;;;;;;;50.58;44.88;;;;;;;0.92;75.96;95686.59;5030141;28;20021;-62
2023/03/01 09:28:50;;;;;;;42.08;37.85;;;;;;;0.90;76.00;95691.03;5035849;28;20057;-63
2023/03/01 09:31:17;;;;;;;46.25;41.53;;;;;;;0.82;77.02;95688.84;5040143;28;20037;-61
2023/03/01 09:33:46;;;;;;;48.88;43.80;;;;;;;0.78;77.39;95684.75;5040406;28;20100;-61
2023/03/01 09:36:15;;;;;;;45.10;40.35;;;;;;;0.83;77.88;95685.34;5042027;28;20033;-62
2023/03/01 09:38:41;;;;;;;44.03;39.55;;;;;;;0.98;77.32;95682.81;5045489;28;20078;-67
2023/03/01 09:41:20;;;;;;;43.53;39.17;;;;;;;1.05;77.30;95679.00;5044598;28;20630;-59
2023/03/01 09:43:54;;;;;;;43.35;39.00;;;;;;;1.08;75.93;95683.16;5047496;28;20033;-59
2023/03/01 09:46:21;;;;;;;42.97;38.78;;;;;;;1.15;76.48;95681.91;5047504;28;20653;-59
2023/03/01 09:48:58;;;;;;;43.53;39.22;;;;;;;1.15;76.17;95687.13;5049795;28;20024;-59
2023/03/01 09:51:32;;;;;;;42.58;38.33;;;;;;;1.19;76.94;95685.16;5037826;28;20409;-59
2023/03/01 09:53:58;;;;;;;43.13;38.72;;;;;;;1.40;75.52;95673.59;5047496;28;20041;-59
2023/03/01 09:56:26;;;;;;;43.65;39.40;;;;;;;1.61;74.00;95675.91;5041160;28;20037;-64
2023/03/01 09:59:08;;;;;;;40.72;36.53;;;;;;;1.83;72.62;95680.72;5037941;28;20029;-61
2023/03/01 10:01:41;;;;;;;44.50;40.00;;;;;;;1.81;71.57;95677.38;5040759;28;20104;-67
2023/03/01 10:04:25;;;;;;;41.30;37.08;;;;;;;1.78;72.42;95674.97;5045075;28;20029;-66
2023/03/01 10:07:15;;;;;;;41.00;36.92;;;;;;;1.81;70.74;95676.53;5061064;28;20059;-66
2023/03/01 10:09:44;;;;;;;41.08;37.17;;;;;;;1.88;70.32;95671.81;5038887;28;20123;-67
2023/03/01 10:12:34;;;;;;;39.28;35.17;;;;;;;2.00;69.50;95666.75;5052273;28;20033;-66
2023/03/01 10:15:12;;;;;;;40.65;36.65;;;;;;;2.02;69.76;95668.41;5064013;28;20043;-66
2023/03/01 10:17:50;;;;;;;40.30;36.50;;;;;;;2.09;68.52;95652.38;5044607;28;20044;-67
2023/03/01 10:20:21;;;;;;;40.00;36.00;;;;;;;2.02;69.35;95663.22;5048299;28;20475;-63
2023/03/01 10:22:50;;;;;;;41.63;37.47;;;;;;;1.68;72.29;95661.66;5038392;28;20502;-63
2023/03/01 10:25:20;;;;;;;42.30;37.95;;;;;;;1.85;72.00;95662.44;5044741;28;20114;-65
2023/03/01 10:27:54;;;;;;;42.80;38.60;;;;;;;1.71;72.02;95656.31;5050787;28;20368;-63
2023/03/01 10:30:36;;;;;;;46.45;41.65;;;;;;;1.74;71.65;95652.66;5056679;28;20028;-63
2023/03/01 10:33:03;;;;;;;58.05;51.03;;;;;;;1.77;71.89;95659.47;5053068;28;20035;-63
2023/03/01 10:35:33;;;;;;;68.45;54.95;;;;;;;1.90;70.58;95644.00;5030714;28;20025;-62
2023/03/01 10:38:09;;;;;;;41.63;37.63;;;;;;;2.12;69.77;95653.97;5032558;28;20395;-59
2023/03/01 10:40:36;;;;;;;43.58;39.22;;;;;;;2.42;69.84;95643.47;5055346;28;20031;-60
2023/03/01 10:43:05;;;;;;;45.25;40.55;;;;;;;2.35;68.70;95652.59;5039748;28;20025;-59
2023/03/01 10:45:35;;;;;;;48.60;43.10;;;;;;;2.52;69.15;95643.75;5047958;28;20029;-59
2023/03/01 10:48:12;;;;;;;40.13;36.17;;;;;;;2.35;68.57;95646.56;5053348;28;20025;-59
2023/03/01 10:50:39;;;;;;;39.45;35.67;;;;;;;2.49;68.25;95643.94;5055723;28;20028;-59
2023/03/01 10:53:05;;;;;;;39.08;35.38;;;;;;;2.29;68.70;95648.59;5045580;28;20494;-59
2023/03/01 10:55:35;;;;;;;39.38;35.70;;;;;;;2.32;67.66;95639.78;5048991;28;20044;-52
2023/03/01 10:58:21;;;;;;;39.00;35.22;;;;;;;2.04;69.30;95645.78;5050122;28;20029;-70
2023/03/01 11:00:59;;;;;;;37.10;33.42;;;;;;;2.32;67.42;95638.94;5039036;28;20035;-62
2023/03/01 11:03:28;;;;;;;37.60;33.65;;;;;;;2.15;67.04;95633.00;5042552;28;20048;-61
2023/03/01 11:06:19;;;;;;;38.00;34.40;;;;;;;1.87;69.04;95634.63;5036610;28;20033;-62
2023/03/01 11:08:46;;;;;;;39.67;35.55;;;;;;;1.95;69.48;95632.44;5039377;28;20041;-62
2023/03/01 11:11:22;;;;;;;40.53;36.58;;;;;;;2.13;69.69;95633.09;5049700;28;20029;-61
2023/03/01 11:13:58;;;;;;;39.85;36.00;;;;;;;2.34;68.74;95626.72;5031757;28;20056;-63
2023/03/01 11:16:28;;;;;;;37.97;34.33;;;;;;;2.27;68.05;95632.25;5036206;28;20029;-59
2023/03/01 11:19:09;;;;;;;39.50;35.72;;;;;;;2.45;67.48;95628.66;5041095;28;20546;-59
2023/03/01 11:21:38;;;;;;;36.58;32.33;;;;;;;2.83;65.28;95621.09;5041898;28;20051;-59
2023/03/01 11:24:08;;;;;;;39.75;35.85;;;;;;;2.38;66.65;95617.78;5044960;28;20048;-59
2023/03/01 11:26:38;;;;;;;38.35;34.60;;;;;;;2.58;66.80;95613.97;5043657;28;20064;-59
2023/03/01 11:29:12;;;;;;;40.50;36.35;;;;;;;2.26;68.43;95615.00;5048081;28;20458;-59